Time;durP1;ratioP1;P1;durP2;ratioP2;P2;SDS_P1;SDS_P2;PMS_P1;PMS_P2;Temp;Humidity;BMP_temperature;BMP_pressure;BME280_temperature;BME280_humidity;BME280_pressure;Samples;Min_cycle;Max_cycle;Signal;HPM_P1;HPM_P2
2021/07/04 00:00:37;;;;;;;1.07;0.97;;;20.30;99.90;;;;;;4957506;28;20461;-78
2021/07/04 00:03:03;;;;;;;1.30;1.20;;;20.30;99.90;;;;;;4946522;29;20179;-78
2021/07/04 00:05:36;;;;;;;2.40;2.30;;;20.30;99.90;;;;;;4961479;29;20428;-78
2021/07/04 00:08:03;;;;;;;1.93;1.83;;;20.30;99.90;;;;;;4948824;28;20421;-78
2021/07/04 00:10:35;;;;;;;4.20;2.13;;;20.30;99.90;;;;;;4962001;28;20454;-78
2021/07/04 00:13:02;;;;;;;1.13;1.00;;;20.30;99.90;;;;;;4958325;29;20922;-78
2021/07/04 00:15:34;;;;;;;2.27;1.60;;;20.20;99.90;;;;;;4968638;28;20421;-78
2021/07/04 00:17:59;;;;;;;1.40;1.30;;;20.20;99.90;;;;;;4958303;29;20444;-78
2021/07/04 00:20:25;;;;;;;0.90;0.80;;;20.20;99.90;;;;;;4957269;28;21019;-78
2021/07/04 00:22:54;;;;;;;1.83;1.70;;;20.10;99.90;;;;;;4943294;29;20247;-78
2021/07/04 00:25:21;;;;;;;2.03;1.73;;;20.00;99.90;;;;;;4943676;29;20179;-78
2021/07/04 00:27:47;;;;;;;1.20;1.10;;;20.00;99.90;;;;;;4955825;29;20472;-78
2021/07/04 00:30:14;;;;;;;2.50;2.30;;;20.10;99.90;;;;;;4959980;29;20441;-78
2021/07/04 00:32:40;;;;;;;7.70;2.17;;;20.10;99.90;;;;;;4951174;28;20182;-78
2021/07/04 00:35:07;;;;;;;3.03;2.43;;;20.10;99.90;;;;;;4955142;29;20501;-78
2021/07/04 00:37:32;;;;;;;2.40;2.20;;;20.00;99.90;;;;;;4946162;29;20198;-78
2021/07/04 00:39:58;;;;;;;1.30;1.20;;;20.00;99.90;;;;;;4947304;28;20456;-78
2021/07/04 00:42:24;;;;;;;1.80;1.53;;;20.00;99.90;;;;;;4943768;29;20179;-78
2021/07/04 00:44:53;;;;;;;1.87;1.77;;;20.00;99.90;;;;;;4947261;28;20179;-78
2021/07/04 00:47:18;;;;;;;1.70;1.60;;;20.00;99.90;;;;;;4944994;29;20183;-78
2021/07/04 00:49:44;;;;;;;4.53;2.50;;;20.00;99.90;;;;;;4945373;29;20489;-78
2021/07/04 00:52:10;;;;;;;1.17;1.00;;;20.00;99.90;;;;;;4951304;29;20261;-78
2021/07/04 00:54:36;;;;;;;2.40;1.80;;;20.00;99.90;;;;;;4955538;28;20266;-78
2021/07/04 00:57:02;;;;;;;3.70;2.43;;;19.90;99.90;;;;;;4945372;29;20825;-78
2021/07/04 00:59:28;;;;;;;1.73;1.63;;;19.90;99.90;;;;;;4951343;29;20466;-78
2021/07/04 01:01:58;;;;;;;3.80;2.67;;;19.90;99.90;;;;;;4961330;28;20254;-78
2021/07/04 01:04:24;;;;;;;1.53;1.43;;;19.80;99.90;;;;;;4961605;28;20425;-78
2021/07/04 01:06:50;;;;;;;2.67;2.47;;;19.80;99.90;;;;;;4960092;29;20417;-78
2021/07/04 01:09:15;;;;;;;2.00;1.50;;;19.80;99.90;;;;;;4956818;28;20442;-78
2021/07/04 01:11:41;;;;;;;3.40;3.13;;;19.80;99.90;;;;;;4958740;28;20185;-78
2021/07/04 01:14:06;;;;;;;1.93;1.83;;;19.70;99.90;;;;;;4963971;28;20193;-78
2021/07/04 01:16:32;;;;;;;4.50;2.40;;;19.70;99.90;;;;;;4957399;28;20192;-78
2021/07/04 01:18:58;;;;;;;2.93;1.57;;;19.70;99.90;;;;;;4954541;28;20279;-78
2021/07/04 01:21:26;;;;;;;2.50;1.50;;;19.70;99.90;;;;;;4960677;29;20453;-78
2021/07/04 01:23:52;;;;;;;1.17;1.00;;;19.70;99.90;;;;;;4957124;29;20174;-78
2021/07/04 01:26:18;;;;;;;8.00;3.00;;;19.70;99.90;;;;;;4949384;28;20522;-78
2021/07/04 01:28:43;;;;;;;0.77;0.67;;;19.60;99.90;;;;;;4945514;29;20417;-78
2021/07/04 01:31:09;;;;;;;1.20;1.10;;;19.70;99.90;;;;;;4952308;28;20182;-78
2021/07/04 01:33:35;;;;;;;5.57;2.53;;;19.60;99.90;;;;;;4954919;28;20321;-78
2021/07/04 01:36:01;;;;;;;3.23;3.03;;;19.60;99.90;;;;;;4961363;29;20417;-78
2021/07/04 01:38:26;;;;;;;3.53;2.07;;;19.60;99.90;;;;;;4960414;28;20433;-78
2021/07/04 01:40:52;;;;;;;2.37;2.17;;;19.70;99.90;;;;;;4962915;28;20253;-78
2021/07/04 01:43:18;;;;;;;2.33;1.50;;;19.70;99.90;;;;;;4963519;28;20178;-78
2021/07/04 01:45:44;;;;;;;3.83;3.53;;;19.60;99.90;;;;;;4964964;29;20516;-79
2021/07/04 01:48:10;;;;;;;4.53;2.20;;;19.60;99.90;;;;;;4960634;28;20281;-78
2021/07/04 01:50:38;;;;;;;2.53;2.33;;;19.60;99.90;;;;;;4961804;28;20228;-78
2021/07/04 01:53:04;;;;;;;2.60;2.50;;;19.60;99.90;;;;;;4962803;28;20438;-79
2021/07/04 01:55:31;;;;;;;2.70;1.77;;;19.60;99.90;;;;;;4962816;29;20436;-78
2021/07/04 01:57:57;;;;;;;4.93;2.63;;;19.70;99.90;;;;;;4952653;29;20431;-78
2021/07/04 02:00:29;;;;;;;1.40;1.27;;;19.60;99.90;;;;;;4962907;29;20552;-78
2021/07/04 02:02:58;;;;;;;1.20;1.10;;;19.70;99.90;;;;;;4958302;28;20542;-78
2021/07/04 02:05:24;;;;;;;3.57;3.37;;;19.70;99.90;;;;;;4959747;28;20422;-78
2021/07/04 02:07:51;;;;;;;2.27;2.10;;;19.60;99.90;;;;;;4961213;28;20422;-78
2021/07/04 02:10:37;;;;;;;1.60;1.50;;;19.60;99.90;;;;;;4954299;28;20462;-79
2021/07/04 02:13:05;;;;;;;1.37;1.27;;;19.60;99.90;;;;;;4959803;28;20422;-78
2021/07/04 02:15:33;;;;;;;1.33;1.23;;;19.70;99.90;;;;;;4945249;29;20474;-78
2021/07/04 02:18:11;;;;;;;1.87;1.77;;;19.60;99.90;;;;;;4947433;29;20439;-79
2021/07/04 02:20:51;;;;;;;1.63;1.53;;;19.60;99.90;;;;;;4962450;28;20540;-78
2021/07/04 02:23:28;;;;;;;2.37;1.57;;;19.60;99.90;;;;;;4951329;28;20426;-78
2021/07/04 02:25:56;;;;;;;2.77;2.00;;;19.60;99.90;;;;;;4945491;28;20489;-78
2021/07/04 02:28:23;;;;;;;2.30;1.90;;;19.60;99.90;;;;;;4950948;29;20426;-79
2021/07/04 02:30:51;;;;;;;5.00;3.60;;;19.60;99.90;;;;;;4964169;28;20453;-79
2021/07/04 02:33:18;;;;;;;1.40;1.30;;;19.60;99.90;;;;;;4953069;28;20425;-78
2021/07/04 02:35:47;;;;;;;3.93;2.27;;;19.60;99.90;;;;;;4965772;29;20465;-79
2021/07/04 02:38:13;;;;;;;1.77;1.53;;;19.60;99.90;;;;;;4959357;28;20446;-78
2021/07/04 02:40:39;;;;;;;1.00;0.90;;;19.60;99.90;;;;;;4961556;29;20461;-78
2021/07/04 02:43:06;;;;;;;2.53;2.33;;;19.60;99.90;;;;;;4962862;28;20241;-79
2021/07/04 02:45:33;;;;;;;3.90;1.37;;;19.50;99.90;;;;;;4965439;28;20426;-78
2021/07/04 02:47:58;;;;;;;2.50;1.33;;;19.50;99.90;;;;;;4956090;28;20425;-79
2021/07/04 02:50:24;;;;;;;2.73;2.53;;;19.50;99.90;;;;;;4949505;28;20442;-79
2021/07/04 02:52:51;;;;;;;1.83;1.10;;;19.50;99.90;;;;;;4955879;29;20570;-78
2021/07/04 02:55:18;;;;;;;1.50;1.10;;;19.50;99.90;;;;;;4953208;29;20432;-79
2021/07/04 02:57:44;;;;;;;5.03;3.03;;;19.40;99.90;;;;;;4957159;29;20441;-78
2021/07/04 03:00:13;;;;;;;3.93;2.20;;;19.40;99.90;;;;;;4948913;28;20454;-78
2021/07/04 03:02:38;;;;;;;2.37;1.57;;;19.40;99.90;;;;;;4950856;29;20418;-78
2021/07/04 03:05:08;;;;;;;4.93;3.40;;;19.40;99.90;;;;;;4964401;29;20505;-79
2021/07/04 03:07:35;;;;;;;2.53;1.90;;;19.30;99.90;;;;;;4963947;28;20190;-79
2021/07/04 03:10:00;;;;;;;2.40;1.93;;;19.30;99.90;;;;;;4963035;29;20442;-78
2021/07/04 03:12:27;;;;;;;2.20;2.00;;;19.30;99.90;;;;;;4961843;28;20967;-78
2021/07/04 03:14:53;;;;;;;1.73;1.63;;;19.30;99.90;;;;;;4965392;28;20167;-79
2021/07/04 03:17:18;;;;;;;4.30;4.00;;;19.30;99.90;;;;;;4953499;28;20453;-78
2021/07/04 03:19:44;;;;;;;1.23;0.80;;;19.20;99.90;;;;;;4962694;29;20233;-78
2021/07/04 03:22:09;;;;;;;2.07;1.97;;;19.20;99.90;;;;;;4964046;28;20687;-79
2021/07/04 03:24:35;;;;;;;1.77;1.67;;;19.20;99.90;;;;;;4950521;29;20252;-79
2021/07/04 03:27:01;;;;;;;1.40;1.27;;;19.20;99.90;;;;;;4958453;29;20198;-79
2021/07/04 03:29:26;;;;;;;1.63;1.00;;;19.30;99.90;;;;;;4962732;29;20591;-79
2021/07/04 03:31:52;;;;;;;1.60;1.50;;;19.20;99.90;;;;;;4962955;28;20678;-79
2021/07/04 03:34:17;;;;;;;2.10;1.23;;;19.10;99.90;;;;;;4967206;28;20245;-79
2021/07/04 03:36:43;;;;;;;2.97;2.77;;;19.10;99.90;;;;;;4966411;28;20193;-79
2021/07/04 03:39:08;;;;;;;1.60;1.50;;;19.20;99.90;;;;;;4963530;28;20229;-79
2021/07/04 03:41:34;;;;;;;1.83;1.70;;;19.20;99.90;;;;;;4964260;29;20199;-79
2021/07/04 03:44:00;;;;;;;1.13;1.03;;;19.20;99.90;;;;;;4959942;29;20183;-78
2021/07/04 03:46:27;;;;;;;11.87;4.00;;;19.20;99.90;;;;;;4966030;28;20175;-79
2021/07/04 03:48:52;;;;;;;2.03;1.83;;;19.20;99.90;;;;;;4980830;28;20410;-79
2021/07/04 03:51:18;;;;;;;1.57;1.47;;;19.20;99.90;;;;;;4964672;29;20429;-78
2021/07/04 03:53:44;;;;;;;3.67;1.73;;;19.20;99.90;;;;;;4960150;29;20201;-79
2021/07/04 03:56:09;;;;;;;2.30;1.27;;;19.20;99.90;;;;;;4960704;28;20245;-79
2021/07/04 03:58:35;;;;;;;1.57;1.47;;;19.20;99.90;;;;;;4959811;29;20182;-79
2021/07/04 04:01:01;;;;;;;1.60;1.43;;;19.20;99.90;;;;;;4948814;28;20198;-79
2021/07/04 04:03:26;;;;;;;2.03;1.60;;;19.20;99.90;;;;;;4963871;29;20198;-79
2021/07/04 04:05:54;;;;;;;3.10;2.90;;;19.30;99.90;;;;;;4953638;29;20224;-79
2021/07/04 04:08:19;;;;;;;1.83;1.53;;;19.30;99.90;;;;;;4966601;28;20186;-79
2021/07/04 04:10:45;;;;;;;2.40;2.10;;;19.30;99.90;;;;;;4967885;28;20509;-79
2021/07/04 04:13:11;;;;;;;2.30;2.10;;;19.30;99.90;;;;;;4966883;29;20182;-79
2021/07/04 04:15:36;;;;;;;1.53;1.27;;;19.40;99.90;;;;;;4967870;28;20581;-79
2021/07/04 04:18:03;;;;;;;2.67;1.20;;;19.40;99.90;;;;;;4961164;28;20448;-79
2021/07/04 04:20:29;;;;;;;1.97;1.63;;;19.50;99.90;;;;;;4967275;29;20199;-79
2021/07/04 04:22:54;;;;;;;2.17;2.03;;;19.50;99.90;;;;;;4960280;28;20429;-79
2021/07/04 04:25:20;;;;;;;2.30;1.00;;;19.50;99.90;;;;;;4967515;29;20179;-79
2021/07/04 04:27:45;;;;;;;1.30;1.20;;;19.50;99.90;;;;;;4970550;28;20205;-79
2021/07/04 04:30:12;;;;;;;5.13;1.70;;;19.50;99.90;;;;;;4954896;28;20198;-79
2021/07/04 04:32:37;;;;;;;1.90;1.73;;;19.50;99.90;;;;;;4960719;28;20183;-79
2021/07/04 04:35:03;;;;;;;1.77;1.10;;;19.50;99.90;;;;;;4950306;29;20839;-79
2021/07/04 04:37:29;;;;;;;1.73;1.30;;;19.50;99.90;;;;;;4957161;29;20218;-79
2021/07/04 04:39:54;;;;;;;1.13;1.03;;;19.60;99.90;;;;;;4951703;29;20886;-79
2021/07/04 04:42:20;;;;;;;1.37;1.27;;;19.60;99.90;;;;;;4958300;29;20213;-79
2021/07/04 04:44:45;;;;;;;2.27;2.17;;;19.60;99.90;;;;;;4969929;29;20189;-79
2021/07/04 04:47:11;;;;;;;3.00;1.63;;;19.60;99.90;;;;;;4951218;28;20181;-79
2021/07/04 04:49:36;;;;;;;1.90;1.80;;;19.70;99.90;;;;;;4965122;28;20198;-79
2021/07/04 04:52:04;;;;;;;1.37;1.27;;;19.70;99.90;;;;;;4967028;28;20178;-79
2021/07/04 04:54:30;;;;;;;2.10;1.70;;;19.70;99.90;;;;;;4968817;28;20190;-79
2021/07/04 04:56:55;;;;;;;1.33;1.23;;;19.70;99.90;;;;;;4955442;28;20466;-79
2021/07/04 04:59:21;;;;;;;2.30;1.93;;;19.70;99.90;;;;;;4949552;28;20207;-78
2021/07/04 05:01:47;;;;;;;2.40;1.30;;;19.70;99.90;;;;;;4953515;29;20199;-79
2021/07/04 05:04:12;;;;;;;1.77;1.20;;;19.70;99.90;;;;;;4959589;29;20833;-78
2021/07/04 05:06:38;;;;;;;3.77;2.30;;;19.60;99.90;;;;;;4961753;29;20186;-79
2021/07/04 05:09:04;;;;;;;0.73;0.57;;;19.70;99.90;;;;;;4961104;29;20245;-78
2021/07/04 05:11:30;;;;;;;2.97;2.00;;;19.70;99.90;;;;;;4960577;28;20257;-78
2021/07/04 05:13:55;;;;;;;1.90;1.70;;;19.70;99.90;;;;;;4946627;29;20423;-78
2021/07/04 05:16:21;;;;;;;1.67;1.57;;;19.60;99.90;;;;;;4944510;29;20564;-79
2021/07/04 05:18:46;;;;;;;2.23;1.40;;;19.70;99.90;;;;;;4952734;29;20851;-80
2021/07/04 05:21:12;;;;;;;0.80;0.80;;;19.70;99.90;;;;;;4956281;29;20574;-79
2021/07/04 05:23:37;;;;;;;1.60;1.33;;;19.70;99.90;;;;;;4954502;29;20261;-79
2021/07/04 05:26:03;;;;;;;6.43;1.50;;;19.70;99.90;;;;;;4942698;29;20183;-80
2021/07/04 05:28:29;;;;;;;2.73;2.40;;;19.80;99.90;;;;;;4946013;29;20816;-79
2021/07/04 05:30:55;;;;;;;1.37;1.20;;;19.80;99.90;;;;;;4948294;29;20213;-79
2021/07/04 05:33:21;;;;;;;1.47;1.37;;;19.90;99.90;;;;;;4957747;28;20229;-80
2021/07/04 05:35:48;;;;;;;3.10;1.97;;;19.90;99.90;;;;;;4955815;28;20430;-80
2021/07/04 05:38:21;;;;;;;1.50;1.30;;;20.00;99.90;;;;;;4956660;28;20457;-79
2021/07/04 05:40:48;;;;;;;2.40;1.10;;;20.10;99.90;;;;;;4942534;28;20470;-79
2021/07/04 05:43:14;;;;;;;5.13;1.60;;;20.20;99.90;;;;;;4938695;29;20419;-80
2021/07/04 05:45:40;;;;;;;1.50;1.40;;;20.30;99.90;;;;;;4951619;29;20488;-80
2021/07/04 05:48:06;;;;;;;4.07;2.93;;;20.40;99.90;;;;;;4949023;28;20427;-80
2021/07/04 05:50:31;;;;;;;1.50;1.10;;;20.60;99.90;;;;;;4944647;29;20285;-80
2021/07/04 05:52:57;;;;;;;2.40;1.97;;;20.80;99.90;;;;;;4944241;28;20560;-80
2021/07/04 05:55:22;;;;;;;1.00;0.90;;;20.90;99.90;;;;;;4956652;28;20197;-80
2021/07/04 05:57:48;;;;;;;3.03;1.07;;;21.10;99.90;;;;;;4946636;28;20182;-80
2021/07/04 06:00:14;;;;;;;1.37;1.07;;;21.40;99.90;;;;;;4943319;28;20207;-80
2021/07/04 06:02:41;;;;;;;1.73;1.43;;;21.40;99.90;;;;;;4952272;28;20644;-80
2021/07/04 06:05:08;;;;;;;2.37;2.27;;;21.60;99.90;;;;;;4955770;28;20994;-80
2021/07/04 06:07:34;;;;;;;1.80;1.10;;;21.70;99.90;;;;;;4956154;29;20429;-80
2021/07/04 06:10:00;;;;;;;0.97;0.87;;;21.90;99.90;;;;;;4954760;28;20450;-80
2021/07/04 06:12:25;;;;;;;2.50;1.00;;;22.00;99.90;;;;;;4951705;28;20425;-80
2021/07/04 06:14:51;;;;;;;0.87;0.80;;;22.10;99.90;;;;;;4943980;29;20182;-81
2021/07/04 06:17:16;;;;;;;2.10;1.47;;;22.30;99.90;;;;;;4944729;29;20186;-80
2021/07/04 06:19:42;;;;;;;0.90;0.70;;;22.40;99.90;;;;;;4941896;29;20213;-81
2021/07/04 06:22:07;;;;;;;1.73;1.63;;;22.50;99.90;;;;;;4954843;29;20205;-80
2021/07/04 06:24:33;;;;;;;1.93;0.90;;;22.60;99.90;;;;;;4948238;28;20612;-79
2021/07/04 06:26:59;;;;;;;1.30;1.10;;;22.70;99.90;;;;;;4954521;29;20260;-79
2021/07/04 06:29:24;;;;;;;2.00;1.90;;;22.70;99.90;;;;;;4947770;28;20247;-80
2021/07/04 06:31:50;;;;;;;2.60;1.57;;;22.70;99.90;;;;;;4957354;29;20663;-80
2021/07/04 06:34:15;;;;;;;3.53;1.70;;;22.70;99.90;;;;;;4951846;29;20186;-79
2021/07/04 06:36:41;;;;;;;1.50;1.37;;;22.70;99.90;;;;;;4947003;28;20183;-80
2021/07/04 06:39:06;;;;;;;1.43;1.17;;;22.80;99.90;;;;;;4951281;29;20202;-80
2021/07/04 06:41:32;;;;;;;1.53;1.43;;;22.80;99.90;;;;;;4963970;28;20202;-80
2021/07/04 06:44:00;;;;;;;0.93;0.93;;;22.80;99.90;;;;;;4953638;28;20267;-80
2021/07/04 06:46:26;;;;;;;1.63;1.30;;;22.80;99.90;;;;;;4947696;29;20186;-79
2021/07/04 06:48:51;;;;;;;1.70;1.60;;;22.80;99.90;;;;;;4941099;29;20789;-78
2021/07/04 06:51:17;;;;;;;2.50;1.33;;;22.90;99.90;;;;;;4942674;29;20203;-80
2021/07/04 06:53:42;;;;;;;1.97;1.87;;;22.90;99.90;;;;;;4946952;29;20179;-80
2021/07/04 06:56:08;;;;;;;1.70;1.27;;;22.90;99.90;;;;;;4962224;28;20246;-80
2021/07/04 06:58:33;;;;;;;2.03;1.37;;;23.00;99.90;;;;;;4955260;29;20185;-78
2021/07/04 07:00:59;;;;;;;1.20;1.10;;;23.10;99.90;;;;;;4957376;28;20206;-80
2021/07/04 07:03:25;;;;;;;2.60;1.50;;;23.10;99.90;;;;;;4942131;28;20193;-80
2021/07/04 07:05:50;;;;;;;1.10;0.80;;;23.20;99.90;;;;;;4943363;29;20179;-80
2021/07/04 07:08:16;;;;;;;1.73;1.63;;;23.20;99.90;;;;;;4946881;29;20189;-80
2021/07/04 07:10:41;;;;;;;1.10;0.90;;;23.40;99.90;;;;;;4963906;29;20552;-80
2021/07/04 07:13:07;;;;;;;1.10;0.90;;;23.50;99.90;;;;;;4955156;28;20250;-80
2021/07/04 07:15:32;;;;;;;0.90;0.70;;;23.50;99.90;;;;;;4946815;29;20233;-81
2021/07/04 07:17:58;;;;;;;1.53;1.10;;;23.60;99.90;;;;;;4937874;29;20186;-81
2021/07/04 07:20:24;;;;;;;2.20;2.00;;;23.60;99.90;;;;;;4946510;29;20217;-80
2021/07/04 07:22:51;;;;;;;1.20;1.10;;;23.50;99.90;;;;;;4949656;28;20539;-81
2021/07/04 07:25:17;;;;;;;0.90;0.73;;;23.40;99.90;;;;;;4954745;28;20480;-80
2021/07/04 07:27:42;;;;;;;1.20;0.80;;;23.50;99.90;;;;;;4956055;28;20947;-79
2021/07/04 07:30:10;;;;;;;2.20;1.37;;;23.40;99.90;;;;;;4945936;29;20194;-80
2021/07/04 07:32:36;;;;;;;1.50;1.20;;;23.50;99.90;;;;;;4948519;28;20167;-80
2021/07/04 07:35:07;;;;;;;1.43;1.10;;;23.50;99.90;;;;;;4953244;28;20437;-80
2021/07/04 07:37:32;;;;;;;1.97;1.40;;;23.50;99.90;;;;;;4953728;29;20861;-81
2021/07/04 07:39:58;;;;;;;2.20;1.57;;;23.60;99.90;;;;;;4937916;28;20475;-80
2021/07/04 07:42:24;;;;;;;1.87;1.77;;;23.60;99.90;;;;;;4938796;29;20191;-81
2021/07/04 07:44:49;;;;;;;1.70;1.13;;;23.60;99.90;;;;;;4956290;28;20182;-81
2021/07/04 07:47:15;;;;;;;1.00;0.70;;;23.70;99.90;;;;;;4952617;28;20182;-81
2021/07/04 07:49:41;;;;;;;0.97;0.80;;;23.80;99.90;;;;;;4943049;28;20195;-81
2021/07/04 07:52:07;;;;;;;1.40;0.80;;;24.10;99.90;;;;;;4952128;29;20591;-82
2021/07/04 07:54:33;;;;;;;1.67;1.07;;;24.40;99.90;;;;;;4953742;28;20521;-82
2021/07/04 07:57:02;;;;;;;1.30;1.00;;;24.80;99.90;;;;;;4954028;28;20179;-81
2021/07/04 07:59:29;;;;;;;1.20;1.10;;;25.20;99.90;;;;;;4948790;28;20451;-83
2021/07/04 08:01:55;;;;;;;1.07;0.87;;;25.60;99.90;;;;;;4952869;29;20465;-82
2021/07/04 08:04:20;;;;;;;1.30;1.20;;;25.90;99.90;;;;;;4949318;28;20955;-82
2021/07/04 08:06:46;;;;;;;1.33;1.23;;;26.00;99.90;;;;;;4949932;28;20178;-82
2021/07/04 08:09:11;;;;;;;0.90;0.80;;;26.30;99.90;;;;;;4944646;28;20195;-82
2021/07/04 08:11:37;;;;;;;1.13;1.03;;;26.40;99.90;;;;;;4956270;28;20258;-82
2021/07/04 08:14:03;;;;;;;1.77;1.60;;;26.60;99.90;;;;;;4957740;29;20268;-81
2021/07/04 08:16:28;;;;;;;0.97;0.83;;;26.60;99.90;;;;;;4959045;28;20556;-81
2021/07/04 08:18:54;;;;;;;1.20;1.10;;;26.60;99.90;;;;;;4952809;28;20246;-82
2021/07/04 08:21:19;;;;;;;1.00;0.80;;;26.70;99.90;;;;;;4953424;29;20256;-81
2021/07/04 08:23:45;;;;;;;1.27;1.17;;;26.80;99.90;;;;;;4953009;28;20234;-82
2021/07/04 08:26:11;;;;;;;1.10;0.77;;;26.90;99.90;;;;;;4943256;29;20704;-83
2021/07/04 08:28:36;;;;;;;1.37;0.80;;;27.00;99.90;;;;;;4951855;28;20183;-83
2021/07/04 08:31:03;;;;;;;1.30;1.10;;;27.00;99.90;;;;;;4952775;29;20217;-84
2021/07/04 08:33:29;;;;;;;2.90;1.63;;;27.00;99.90;;;;;;4949366;28;20182;-83
2021/07/04 08:35:54;;;;;;;1.73;1.63;;;27.10;99.90;;;;;;4945166;29;20505;-83
2021/07/04 08:38:20;;;;;;;1.40;0.93;;;27.20;99.90;;;;;;4955556;28;20186;-82
2021/07/04 08:40:45;;;;;;;2.37;2.27;;;27.30;99.90;;;;;;4956359;29;20215;-82
2021/07/04 08:43:34;;;;;;;1.57;1.47;;;27.30;99.90;;;;;;4947056;28;20181;-83
2021/07/04 08:46:01;;;;;;;1.20;1.10;;;27.40;99.90;;;;;;4948380;29;20244;-81
2021/07/04 08:48:27;;;;;;;1.80;1.70;;;27.40;99.90;;;;;;4956454;29;20426;-80
2021/07/04 08:50:53;;;;;;;1.20;1.10;;;27.30;99.90;;;;;;4951815;28;21069;-81
2021/07/04 08:53:19;;;;;;;1.30;1.07;;;27.30;99.90;;;;;;4955513;29;20498;-81
2021/07/04 08:55:46;;;;;;;1.43;1.00;;;27.40;99.90;;;;;;4964443;29;20458;-81
2021/07/04 08:58:18;;;;;;;2.27;2.17;;;27.40;99.90;;;;;;4967198;28;20430;-81
2021/07/04 09:00:43;;;;;;;2.03;1.13;;;27.30;99.90;;;;;;4965080;28;20493;-80
2021/07/04 09:03:25;;;;;;;1.30;1.20;;;27.30;99.90;;;;;;4967451;29;20476;-80
2021/07/04 09:05:51;;;;;;;1.17;1.03;;;27.20;99.90;;;;;;4964688;29;20178;-82
2021/07/04 09:08:21;;;;;;;1.73;1.63;;;27.30;99.90;;;;;;4965665;29;20422;-81
2021/07/04 09:11:16;;;;;;;2.20;1.40;;;27.50;99.90;;;;;;4964309;28;20524;-82
2021/07/04 09:13:47;;;;;;;1.73;1.50;;;28.10;99.90;;;;;;4964281;29;20502;-82
2021/07/04 09:16:16;;;;;;;1.20;1.10;;;28.50;99.90;;;;;;4956778;29;20827;-82
2021/07/04 09:18:42;;;;;;;2.00;1.50;;;28.80;99.90;;;;;;4967665;28;20441;-83
2021/07/04 09:21:22;;;;;;;2.40;1.90;;;29.20;99.90;;;;;;4966482;29;20495;-83
2021/07/04 09:23:48;;;;;;;1.53;1.43;;;29.70;99.90;;;;;;4955974;28;20179;-83
2021/07/04 09:26:37;;;;;;;1.10;1.00;;;30.00;99.90;;;;;;4958630;29;20426;-83
2021/07/04 09:29:02;;;;;;;1.67;1.57;;;30.60;99.90;;;;;;4957414;28;20215;-84
2021/07/04 09:31:31;;;;;;;4.23;2.03;;;30.90;99.90;;;;;;4946812;29;20467;-84
2021/07/04 09:34:05;;;;;;;2.60;1.00;;;31.20;99.90;;;;;;4951804;28;20225;-85
2021/07/04 09:36:32;;;;;;;1.13;1.00;;;31.50;99.90;;;;;;4951964;29;20426;-84
2021/07/04 09:38:58;;;;;;;1.20;1.10;;;31.50;99.90;;;;;;4956940;29;20433;-82
2021/07/04 09:41:23;;;;;;;1.10;0.97;;;31.40;99.90;;;;;;4948405;28;20456;-82
2021/07/04 09:43:49;;;;;;;1.20;1.10;;;31.20;99.90;;;;;;4970275;28;20648;-82
2021/07/04 09:46:15;;;;;;;1.93;1.73;;;31.00;99.90;;;;;;4956405;28;20174;-83
2021/07/04 09:48:48;;;;;;;2.70;1.47;;;30.70;99.90;;;;;;4937547;29;20172;-82
2021/07/04 09:51:25;;;;;;;1.60;1.30;;;30.50;99.90;;;;;;4942759;29;20426;-83
2021/07/04 09:53:54;;;;;;;2.00;1.50;;;30.40;99.90;;;;;;4957771;29;20421;-83
2021/07/04 09:56:23;;;;;;;1.23;1.03;;;30.40;99.90;;;;;;4955617;28;20849;-82
2021/07/04 09:58:51;;;;;;;1.43;1.33;;;30.20;99.90;;;;;;4947225;29;20426;-82
2021/07/04 10:01:45;;;;;;;1.10;1.00;;;30.00;99.90;;;;;;4939156;29;20455;-82
2021/07/04 10:04:26;;;;;;;1.43;1.33;;;29.80;99.90;;;;;;4941298;29;20936;-82
2021/07/04 10:06:53;;;;;;;1.07;0.97;;;29.50;99.90;;;;;;4948225;29;20506;-80
2021/07/04 10:09:20;;;;;;;1.93;1.40;;;29.50;99.90;;;;;;4953841;29;20441;-82
2021/07/04 10:11:47;;;;;;;1.00;0.90;;;29.40;99.90;;;;;;4951248;29;20426;-82
2021/07/04 10:14:13;;;;;;;1.77;1.30;;;29.60;99.90;;;;;;4955268;29;20432;-82
2021/07/04 10:16:42;;;;;;;1.87;1.73;;;29.70;99.90;;;;;;4951184;28;20804;-84
2021/07/04 10:19:13;;;;;;;1.00;0.90;;;29.70;99.90;;;;;;4943794;29;20500;-82
2021/07/04 10:21:40;;;;;;;1.17;1.07;;;29.50;99.90;;;;;;4954526;29;20462;-81
2021/07/04 10:24:07;;;;;;;3.73;1.47;;;29.50;99.90;;;;;;4956023;28;20787;-81
2021/07/04 10:26:36;;;;;;;1.13;1.03;;;29.40;99.90;;;;;;4945788;29;20433;-80
2021/07/04 10:29:06;;;;;;;2.50;1.70;;;29.10;99.90;;;;;;4957592;28;20480;-80
2021/07/04 10:31:33;;;;;;;1.60;1.50;;;28.90;99.90;;;;;;4938946;28;20418;-80
2021/07/04 10:34:07;;;;;;;1.30;1.20;;;28.60;99.90;;;;;;4947579;29;20434;-80
2021/07/04 10:36:53;;;;;;;1.50;1.40;;;28.40;99.90;;;;;;4944980;29;20425;-81
2021/07/04 10:39:19;;;;;;;2.80;1.53;;;27.90;99.90;;;;;;4948318;29;20450;-80
2021/07/04 10:41:53;;;;;;;2.13;1.07;;;27.70;99.90;;;;;;4944121;29;20469;-80
2021/07/04 10:44:40;;;;;;;1.10;0.93;;;27.30;99.90;;;;;;4956372;28;20779;-80
2021/07/04 10:47:08;;;;;;;1.40;1.17;;;27.00;99.90;;;;;;4954259;29;20426;-79
2021/07/04 10:49:39;;;;;;;1.47;1.37;;;26.70;99.90;;;;;;4957873;29;20528;-80
2021/07/04 10:52:05;;;;;;;2.50;1.53;;;26.70;99.90;;;;;;4946784;29;20456;-80
2021/07/04 10:54:40;;;;;;;2.23;2.03;;;26.90;99.90;;;;;;4960395;28;20466;-80
2021/07/04 10:57:15;;;;;;;1.90;1.77;;;27.10;99.90;;;;;;4959697;28;20174;-79
2021/07/04 10:59:58;;;;;;;2.07;1.87;;;27.40;99.90;;;;;;4956185;28;20924;-81
2021/07/04 11:02:45;;;;;;;1.77;1.10;;;27.90;99.90;;;;;;4950473;29;20462;-80
2021/07/04 11:05:30;;;;;;;1.33;1.23;;;28.10;99.90;;;;;;4957494;29;20458;-82
2021/07/04 11:07:56;;;;;;;1.23;1.13;;;28.00;99.90;;;;;;4956675;28;20450;-81
2021/07/04 11:10:27;;;;;;;0.97;0.80;;;28.20;99.90;;;;;;4958219;28;20966;-82
2021/07/04 11:13:16;;;;;;;1.40;0.90;;;28.20;99.90;;;;;;4972381;28;20178;-79
2021/07/04 11:15:43;;;;;;;1.00;0.90;;;27.90;99.90;;;;;;4957192;29;20446;-80
2021/07/04 11:18:15;;;;;;;2.43;1.83;;;28.10;99.90;;;;;;4957737;28;20418;-79
2021/07/04 11:20:43;;;;;;;2.20;1.40;;;28.00;99.90;;;;;;4956674;28;20985;-81
2021/07/04 11:25:57;;;;;;;1.93;1.33;;;28.10;99.90;;;;;;4945672;29;20428;-80
2021/07/04 11:28:33;;;;;;;1.60;1.50;;;28.10;99.90;;;;;;4956109;28;20505;-79
2021/07/04 11:30:58;;;;;;;1.30;1.17;;;28.10;99.90;;;;;;4946558;29;20449;-79
2021/07/04 11:33:34;;;;;;;1.13;1.03;;;28.30;99.90;;;;;;4947888;29;20426;-80
2021/07/04 11:36:09;;;;;;;1.40;1.10;;;28.30;99.90;;;;;;4954218;28;20292;-80
2021/07/04 11:38:40;;;;;;;1.40;1.10;;;28.30;99.90;;;;;;4957914;28;20610;-80
2021/07/04 11:41:09;;;;;;;1.00;0.90;;;28.20;99.90;;;;;;4958274;29;20489;-80
2021/07/04 11:43:41;;;;;;;0.90;0.70;;;27.90;99.90;;;;;;4946383;28;20414;-78
2021/07/04 11:46:11;;;;;;;1.07;0.97;;;27.90;99.90;;;;;;4949204;29;20430;-81
2021/07/04 11:48:53;;;;;;;1.93;1.83;;;27.90;99.90;;;;;;4976826;28;20429;-78
2021/07/04 11:51:25;;;;;;;1.10;1.00;;;27.80;99.90;;;;;;4959889;28;20524;-80
2021/07/04 11:53:52;;;;;;;1.10;0.80;;;27.70;99.90;;;;;;4962690;28;20452;-81
2021/07/04 11:56:18;;;;;;;1.00;0.90;;;27.90;99.90;;;;;;4960499;28;20520;-81
2021/07/04 11:58:44;;;;;;;0.90;0.70;;;27.80;99.90;;;;;;4951024;29;20508;-81
2021/07/04 12:01:22;;;;;;;1.60;0.77;;;27.70;99.90;;;;;;4958161;29;20209;-80
2021/07/04 12:03:55;;;;;;;1.10;1.00;;;27.70;99.90;;;;;;4958478;29;20421;-78
2021/07/04 12:06:22;;;;;;;1.80;1.23;;;27.60;99.90;;;;;;4961084;28;20426;-80
2021/07/04 12:09:05;;;;;;;1.20;0.80;;;27.40;99.90;;;;;;4963524;28;20424;-80
2021/07/04 12:11:46;;;;;;;1.20;1.10;;;27.10;99.90;;;;;;4961016;29;20422;-81
2021/07/04 12:14:32;;;;;;;1.37;0.80;;;27.00;99.90;;;;;;4960770;29;20425;-80
2021/07/04 12:17:28;;;;;;;0.90;0.80;;;26.90;99.90;;;;;;4951092;28;20426;-79
2021/07/04 12:20:23;;;;;;;1.60;1.13;;;26.80;99.90;;;;;;4949354;29;20484;-81
2021/07/04 12:22:55;;;;;;;1.00;0.70;;;26.50;99.90;;;;;;4964770;28;20445;-79
2021/07/04 12:25:30;;;;;;;0.90;0.70;;;26.40;99.90;;;;;;4964488;29;20421;-78
2021/07/04 12:27:57;;;;;;;0.80;0.67;;;26.20;99.90;;;;;;4963057;28;20432;-80
2021/07/04 12:30:50;;;;;;;0.80;0.70;;;26.20;99.90;;;;;;4956222;29;20502;-79
2021/07/04 12:33:28;;;;;;;3.00;1.50;;;25.60;99.90;;;;;;4960978;29;20426;-78
2021/07/04 12:36:08;;;;;;;0.83;0.60;;;25.40;99.90;;;;;;4958572;28;20422;-77
2021/07/04 12:38:38;;;;;;;1.00;0.70;;;25.00;99.90;;;;;;4960008;29;20421;-78
2021/07/04 12:41:08;;;;;;;1.43;0.83;;;24.50;99.90;;;;;;4962398;28;20553;-79
2021/07/04 12:43:49;;;;;;;0.80;0.60;;;24.10;99.90;;;;;;4961317;29;20422;-79
2021/07/04 12:46:18;;;;;;;0.93;0.70;;;23.70;99.90;;;;;;4961681;29;21063;-78
2021/07/04 12:48:48;;;;;;;0.80;0.60;;;23.60;99.90;;;;;;4949992;29;20430;-79
2021/07/04 12:51:21;;;;;;;0.90;0.70;;;23.50;99.90;;;;;;4955536;29;20419;-79
2021/07/04 12:53:47;;;;;;;1.00;0.90;;;23.30;99.90;;;;;;4946027;28;20430;-79
2021/07/04 12:56:23;;;;;;;0.80;0.50;;;23.00;99.90;;;;;;4961938;29;20795;-78